sensor_id;sensor_type;location;lat;lon;timestamp;pressure;altitude;pressure_sealevel;temperature;humidity
84673;BME280;74899;42.256;23.284;2024-01-30T00:02:15;90092.53;;;-5.94;73.66
84673;BME280;74899;42.256;23.284;2024-01-30T00:04:42;90097.16;;;-5.99;73.24
84673;BME280;74899;42.256;23.284;2024-01-30T00:07:08;90093.44;;;-5.95;73.31
84673;BME280;74899;42.256;23.284;2024-01-30T00:09:34;90098.06;;;-6.00;73.44
84673;BME280;74899;42.256;23.284;2024-01-30T00:12:00;90092.00;;;-6.17;74.01
84673;BME280;74899;42.256;23.284;2024-01-30T00:14:27;90097.38;;;-6.21;74.71
84673;BME280;74899;42.256;23.284;2024-01-30T00:16:53;90096.19;;;-6.27;74.97
84673;BME280;74899;42.256;23.284;2024-01-30T00:19:19;90092.88;;;-6.27;74.77
84673;BME280;74899;42.256;23.284;2024-01-30T00:21:45;90092.00;;;-6.17;74.19
84673;BME280;74899;42.256;23.284;2024-01-30T00:24:12;90104.53;;;-6.07;73.30
84673;BME280;74899;42.256;23.284;2024-01-30T00:26:39;90092.25;;;-6.20;73.48
84673;BME280;74899;42.256;23.284;2024-01-30T00:29:06;90099.91;;;-6.11;73.67
84673;BME280;74899;42.256;23.284;2024-01-30T00:31:32;90097.13;;;-6.28;74.11
84673;BME280;74899;42.256;23.284;2024-01-30T00:33:58;90103.84;;;-6.28;73.94
84673;BME280;74899;42.256;23.284;2024-01-30T00:36:24;90107.78;;;-6.35;75.45
84673;BME280;74899;42.256;23.284;2024-01-30T00:38:50;90092.97;;;-6.48;75.60
84673;BME280;74899;42.256;23.284;2024-01-30T00:41:18;90103.22;;;-6.61;76.80
84673;BME280;74899;42.256;23.284;2024-01-30T00:43:46;90095.34;;;-6.47;75.84
84673;BME280;74899;42.256;23.284;2024-01-30T00:46:12;90104.31;;;-6.54;76.98
84673;BME280;74899;42.256;23.284;2024-01-30T00:48:39;90103.03;;;-6.29;76.75
84673;BME280;74899;42.256;23.284;2024-01-30T00:51:05;90102.03;;;-6.17;75.80
84673;BME280;74899;42.256;23.284;2024-01-30T00:53:31;90092.25;;;-6.10;75.54
84673;BME280;74899;42.256;23.284;2024-01-30T00:55:57;90091.31;;;-5.89;74.58
84673;BME280;74899;42.256;23.284;2024-01-30T00:58:23;90094.09;;;-5.73;73.17
84673;BME280;74899;42.256;23.284;2024-01-30T01:00:49;90098.03;;;-5.71;72.97
84673;BME280;74899;42.256;23.284;2024-01-30T01:03:15;90089.34;;;-5.86;72.77
84673;BME280;74899;42.256;23.284;2024-01-30T01:05:41;90090.78;;;-5.83;73.40
84673;BME280;74899;42.256;23.284;2024-01-30T01:08:06;90097.78;;;-6.26;75.05
84673;BME280;74899;42.256;23.284;2024-01-30T01:10:32;90084.19;;;-6.04;73.84
84673;BME280;74899;42.256;23.284;2024-01-30T01:12:58;90088.94;;;-5.81;73.46
84673;BME280;74899;42.256;23.284;2024-01-30T01:15:25;90086.56;;;-5.73;72.67
84673;BME280;74899;42.256;23.284;2024-01-30T01:17:51;90084.84;;;-5.92;73.02
84673;BME280;74899;42.256;23.284;2024-01-30T01:20:17;90082.56;;;-6.34;74.43
84673;BME280;74899;42.256;23.284;2024-01-30T01:22:43;90084.56;;;-6.37;75.53
84673;BME280;74899;42.256;23.284;2024-01-30T01:25:09;90082.84;;;-6.27;75.01
84673;BME280;74899;42.256;23.284;2024-01-30T01:27:35;90080.72;;;-6.32;75.01
84673;BME280;74899;42.256;23.284;2024-01-30T01:30:10;90076.91;;;-6.26;75.71
84673;BME280;74899;42.256;23.284;2024-01-30T01:32:37;90070.72;;;-6.22;74.14
84673;BME280;74899;42.256;23.284;2024-01-30T01:35:04;90064.06;;;-6.33;74.23
84673;BME280;74899;42.256;23.284;2024-01-30T01:37:32;90086.00;;;-6.35;74.49
84673;BME280;74899;42.256;23.284;2024-01-30T01:39:57;90071.19;;;-6.38;74.42
84673;BME280;74899;42.256;23.284;2024-01-30T01:42:23;90065.13;;;-6.45;74.74
84673;BME280;74899;42.256;23.284;2024-01-30T01:44:49;90070.91;;;-6.54;75.61
84673;BME280;74899;42.256;23.284;2024-01-30T01:47:15;90079.38;;;-6.46;72.78
84673;BME280;74899;42.256;23.284;2024-01-30T01:49:43;90087.16;;;-6.49;72.85
84673;BME280;74899;42.256;23.284;2024-01-30T01:52:09;90082.78;;;-6.47;73.54
84673;BME280;74899;42.256;23.284;2024-01-30T01:54:36;90094.50;;;-6.17;73.88
84673;BME280;74899;42.256;23.284;2024-01-30T01:57:02;90083.56;;;-5.96;72.27
84673;BME280;74899;42.256;23.284;2024-01-30T01:59:28;90070.16;;;-5.77;71.39
84673;BME280;74899;42.256;23.284;2024-01-30T02:04:29;90079.41;;;-5.49;70.69
84673;BME280;74899;42.256;23.284;2024-01-30T02:06:55;90091.47;;;-5.81;71.29
84673;BME280;74899;42.256;23.284;2024-01-30T02:09:20;90092.50;;;-6.13;72.80
84673;BME280;74899;42.256;23.284;2024-01-30T02:11:46;90102.13;;;-6.28;73.49
84673;BME280;74899;42.256;23.284;2024-01-30T02:14:12;90100.94;;;-6.33;73.69
84673;BME280;74899;42.256;23.284;2024-01-30T02:16:38;90090.72;;;-6.42;73.39
84673;BME280;74899;42.256;23.284;2024-01-30T02:19:04;90085.56;;;-6.50;74.20
84673;BME280;74899;42.256;23.284;2024-01-30T02:21:31;90087.28;;;-6.50;73.69
84673;BME280;74899;42.256;23.284;2024-01-30T02:23:58;90108.72;;;-6.27;73.43
84673;BME280;74899;42.256;23.284;2024-01-30T02:26:25;90101.19;;;-6.36;73.06
84673;BME280;74899;42.256;23.284;2024-01-30T02:28:51;90093.78;;;-6.38;73.15
84673;BME280;74899;42.256;23.284;2024-01-30T02:31:17;90096.25;;;-6.57;74.16
84673;BME280;74899;42.256;23.284;2024-01-30T02:33:43;90103.22;;;-6.61;74.40
84673;BME280;74899;42.256;23.284;2024-01-30T02:36:09;90100.97;;;-6.64;73.66
84673;BME280;74899;42.256;23.284;2024-01-30T02:38:34;90107.69;;;-6.65;73.56
84673;BME280;74899;42.256;23.284;2024-01-30T02:41:00;90095.56;;;-6.69;73.98
84673;BME280;74899;42.256;23.284;2024-01-30T02:43:26;90100.06;;;-6.63;73.24
84673;BME280;74899;42.256;23.284;2024-01-30T02:45:53;90102.16;;;-6.68;74.00
84673;BME280;74899;42.256;23.284;2024-01-30T02:48:19;90098.19;;;-6.61;74.46
84673;BME280;74899;42.256;23.284;2024-01-30T02:50:45;90093.84;;;-6.59;73.84
84673;BME280;74899;42.256;23.284;2024-01-30T02:53:11;90085.13;;;-6.65;74.48
84673;BME280;74899;42.256;23.284;2024-01-30T02:55:37;90082.34;;;-6.71;74.51
84673;BME280;74899;42.256;23.284;2024-01-30T02:58:03;90078.25;;;-6.72;73.48
84673;BME280;74899;42.256;23.284;2024-01-30T03:00:30;90084.72;;;-6.70;74.47
84673;BME280;74899;42.256;23.284;2024-01-30T03:02:56;90071.00;;;-6.66;74.06
84673;BME280;74899;42.256;23.284;2024-01-30T03:05:21;90077.31;;;-6.71;74.26
84673;BME280;74899;42.256;23.284;2024-01-30T03:07:49;90085.09;;;-6.74;75.06
84673;BME280;74899;42.256;23.284;2024-01-30T03:10:14;90081.41;;;-6.70;75.10
84673;BME280;74899;42.256;23.284;2024-01-30T03:12:40;90079.31;;;-6.65;74.49
84673;BME280;74899;42.256;23.284;2024-01-30T03:15:07;90078.78;;;-6.69;74.50
84673;BME280;74899;42.256;23.284;2024-01-30T03:17:33;90071.63;;;-6.73;74.18
84673;BME280;74899;42.256;23.284;2024-01-30T03:19:59;90061.56;;;-6.83;74.52
84673;BME280;74899;42.256;23.284;2024-01-30T03:22:25;90056.94;;;-6.88;75.31
84673;BME280;74899;42.256;23.284;2024-01-30T03:24:52;90069.59;;;-6.89;74.59
84673;BME280;74899;42.256;23.284;2024-01-30T03:27:18;90078.06;;;-6.90;74.57
84673;BME280;74899;42.256;23.284;2024-01-30T03:29:44;90064.19;;;-6.85;74.62
84673;BME280;74899;42.256;23.284;2024-01-30T03:32:10;90069.47;;;-6.88;73.82
84673;BME280;74899;42.256;23.284;2024-01-30T03:34:36;90070.94;;;-6.85;74.25
84673;BME280;74899;42.256;23.284;2024-01-30T03:37:02;90071.78;;;-6.75;74.73
84673;BME280;74899;42.256;23.284;2024-01-30T03:39:30;90068.97;;;-6.81;74.53
84673;BME280;74899;42.256;23.284;2024-01-30T03:41:56;90078.19;;;-6.51;73.97
84673;BME280;74899;42.256;23.284;2024-01-30T03:44:21;90069.28;;;-6.65;74.66
84673;BME280;74899;42.256;23.284;2024-01-30T03:46:47;90077.31;;;-6.71;74.61
84673;BME280;74899;42.256;23.284;2024-01-30T03:49:13;90081.56;;;-6.72;74.46
84673;BME280;74899;42.256;23.284;2024-01-30T03:51:39;90084.75;;;-6.60;74.22
84673;BME280;74899;42.256;23.284;2024-01-30T03:54:06;90081.63;;;-6.43;73.49
84673;BME280;74899;42.256;23.284;2024-01-30T03:56:33;90068.06;;;-6.30;72.67
84673;BME280;74899;42.256;23.284;2024-01-30T03:58:59;90073.75;;;-6.19;72.86
84673;BME280;74899;42.256;23.284;2024-01-30T04:01:34;90073.44;;;-6.45;73.30
84673;BME280;74899;42.256;23.284;2024-01-30T04:03:59;90076.56;;;-6.52;73.93
84673;BME280;74899;42.256;23.284;2024-01-30T04:06:26;90060.97;;;-6.66;73.20
84673;BME280;74899;42.256;23.284;2024-01-30T04:08:51;90060.47;;;-6.59;73.01
84673;BME280;74899;42.256;23.284;2024-01-30T04:11:19;90060.88;;;-6.54;72.88
84673;BME280;74899;42.256;23.284;2024-01-30T04:13:47;90054.56;;;-6.49;72.53
84673;BME280;74899;42.256;23.284;2024-01-30T04:16:21;90071.19;;;-6.48;72.74
84673;BME280;74899;42.256;23.284;2024-01-30T04:18:47;90065.66;;;-6.42;73.02
84673;BME280;74899;42.256;23.284;2024-01-30T04:21:13;90073.78;;;-6.59;71.64
84673;BME280;74899;42.256;23.284;2024-01-30T04:23:40;90060.69;;;-6.72;71.60
84673;BME280;74899;42.256;23.284;2024-01-30T04:26:06;90066.41;;;-6.60;72.29
84673;BME280;74899;42.256;23.284;2024-01-30T04:28:32;90068.75;;;-6.69;71.59
84673;BME280;74899;42.256;23.284;2024-01-30T04:30:58;90077.13;;;-6.49;71.65
84673;BME280;74899;42.256;23.284;2024-01-30T04:33:24;90068.06;;;-6.21;71.93
84673;BME280;74899;42.256;23.284;2024-01-30T04:35:50;90073.22;;;-6.03;71.23
84673;BME280;74899;42.256;23.284;2024-01-30T04:38:16;90072.94;;;-5.90;71.05
84673;BME280;74899;42.256;23.284;2024-01-30T04:40:42;90071.63;;;-5.84;70.84
84673;BME280;74899;42.256;23.284;2024-01-30T04:43:10;90074.13;;;-5.75;70.40
84673;BME280;74899;42.256;23.284;2024-01-30T04:45:36;90064.22;;;-5.86;69.66
84673;BME280;74899;42.256;23.284;2024-01-30T04:48:02;90083.25;;;-5.64;70.25
84673;BME280;74899;42.256;23.284;2024-01-30T04:50:29;90076.66;;;-5.55;69.28
84673;BME280;74899;42.256;23.284;2024-01-30T04:52:56;90085.09;;;-5.37;70.14
84673;BME280;74899;42.256;23.284;2024-01-30T04:55:22;90086.00;;;-5.48;69.85
84673;BME280;74899;42.256;23.284;2024-01-30T04:57:49;90089.97;;;-5.35;69.55
84673;BME280;74899;42.256;23.284;2024-01-30T05:00:15;90092.47;;;-5.35;69.93
84673;BME280;74899;42.256;23.284;2024-01-30T05:02:41;90092.63;;;-5.37;69.42
84673;BME280;74899;42.256;23.284;2024-01-30T05:05:07;90092.63;;;-5.47;69.25
84673;BME280;74899;42.256;23.284;2024-01-30T05:07:33;90083.13;;;-5.62;69.59
84673;BME280;74899;42.256;23.284;2024-01-30T05:10:00;90090.78;;;-5.54;68.98
84673;BME280;74899;42.256;23.284;2024-01-30T05:12:26;90088.81;;;-5.60;69.43
84673;BME280;74899;42.256;23.284;2024-01-30T05:14:52;90082.84;;;-5.69;69.47
84673;BME280;74899;42.256;23.284;2024-01-30T05:17:18;90088.66;;;-5.68;69.95
84673;BME280;74899;42.256;23.284;2024-01-30T05:19:44;90082.47;;;-5.55;69.69
84673;BME280;74899;42.256;23.284;2024-01-30T05:22:11;90073.22;;;-5.64;69.45
84673;BME280;74899;42.256;23.284;2024-01-30T05:24:43;90090.13;;;-5.47;68.98
84673;BME280;74899;42.256;23.284;2024-01-30T05:27:09;90083.13;;;-5.53;69.18
84673;BME280;74899;42.256;23.284;2024-01-30T05:29:34;90082.06;;;-5.40;68.66
84673;BME280;74899;42.256;23.284;2024-01-30T05:32:00;90085.09;;;-5.56;68.85
84673;BME280;74899;42.256;23.284;2024-01-30T05:34:26;90089.59;;;-5.40;68.60
84673;BME280;74899;42.256;23.284;2024-01-30T05:36:52;90084.03;;;-5.34;67.80
84673;BME280;74899;42.256;23.284;2024-01-30T05:39:19;90088.66;;;-5.39;67.65
84673;BME280;74899;42.256;23.284;2024-01-30T05:41:46;90082.31;;;-5.63;67.88
84673;BME280;74899;42.256;23.284;2024-01-30T05:44:12;90071.50;;;-5.73;67.38
84673;BME280;74899;42.256;23.284;2024-01-30T05:46:38;90082.31;;;-5.63;67.47
84673;BME280;74899;42.256;23.284;2024-01-30T05:49:04;90085.00;;;-5.64;66.68
84673;BME280;74899;42.256;23.284;2024-01-30T05:51:31;90089.88;;;-5.63;66.52
84673;BME280;74899;42.256;23.284;2024-01-30T05:53:57;90088.53;;;-5.77;66.36
84673;BME280;74899;42.256;23.284;2024-01-30T05:56:23;90087.78;;;-5.97;65.51
84673;BME280;74899;42.256;23.284;2024-01-30T05:58:49;90091.59;;;-5.93;66.06
84673;BME280;74899;42.256;23.284;2024-01-30T06:01:18;90083.94;;;-6.10;66.57
84673;BME280;74899;42.256;23.284;2024-01-30T06:03:43;90088.53;;;-6.16;66.72
84673;BME280;74899;42.256;23.284;2024-01-30T06:06:09;90084.69;;;-6.29;67.57
84673;BME280;74899;42.256;23.284;2024-01-30T06:08:35;90104.38;;;-6.25;67.72
84673;BME280;74899;42.256;23.284;2024-01-30T06:11:01;90099.34;;;-6.34;67.79
84673;BME280;74899;42.256;23.284;2024-01-30T06:13:27;90110.44;;;-6.37;68.52
84673;BME280;74899;42.256;23.284;2024-01-30T06:15:53;90103.22;;;-6.01;68.05
84673;BME280;74899;42.256;23.284;2024-01-30T06:18:19;90104.91;;;-5.92;68.24
84673;BME280;74899;42.256;23.284;2024-01-30T06:20:44;90113.13;;;-5.80;67.35
84673;BME280;74899;42.256;23.284;2024-01-30T06:23:10;90111.41;;;-5.80;67.70
84673;BME280;74899;42.256;23.284;2024-01-30T06:25:38;90106.41;;;-5.70;67.92
84673;BME280;74899;42.256;23.284;2024-01-30T06:28:06;90113.69;;;-5.67;67.65
84673;BME280;74899;42.256;23.284;2024-01-30T06:30:32;90120.78;;;-5.62;67.58
84673;BME280;74899;42.256;23.284;2024-01-30T06:32:58;90108.25;;;-5.62;67.31
84673;BME280;74899;42.256;23.284;2024-01-30T06:35:24;90128.59;;;-5.46;67.03
84673;BME280;74899;42.256;23.284;2024-01-30T06:37:49;90104.16;;;-5.44;67.37
84673;BME280;74899;42.256;23.284;2024-01-30T06:40:15;90098.31;;;-5.44;66.87
84673;BME280;74899;42.256;23.284;2024-01-30T06:42:41;90118.13;;;-5.22;67.12
84673;BME280;74899;42.256;23.284;2024-01-30T06:45:08;90124.31;;;-5.07;66.83
84673;BME280;74899;42.256;23.284;2024-01-30T06:47:34;90119.78;;;-4.84;67.04
84673;BME280;74899;42.256;23.284;2024-01-30T06:49:59;90102.59;;;-4.98;66.79
84673;BME280;74899;42.256;23.284;2024-01-30T06:52:30;90114.25;;;-4.60;65.92
84673;BME280;74899;42.256;23.284;2024-01-30T06:54:57;90124.25;;;-4.40;65.04
84673;BME280;74899;42.256;23.284;2024-01-30T06:57:23;90108.66;;;-4.53;65.44
84673;BME280;74899;42.256;23.284;2024-01-30T06:59:51;90120.91;;;-4.31;64.61
84673;BME280;74899;42.256;23.284;2024-01-30T07:02:17;90114.56;;;-4.07;64.29
84673;BME280;74899;42.256;23.284;2024-01-30T07:04:43;90103.00;;;-4.00;64.23
84673;BME280;74899;42.256;23.284;2024-01-30T07:07:09;90108.69;;;-4.26;64.17
84673;BME280;74899;42.256;23.284;2024-01-30T07:09:38;90104.75;;;-4.11;63.61
84673;BME280;74899;42.256;23.284;2024-01-30T07:12:05;90096.16;;;-3.90;62.75
84673;BME280;74899;42.256;23.284;2024-01-30T07:14:31;90106.03;;;-3.61;62.40
84673;BME280;74899;42.256;23.284;2024-01-30T07:16:57;90117.94;;;-3.53;61.35
84673;BME280;74899;42.256;23.284;2024-01-30T07:19:23;90098.34;;;-3.42;61.06
84673;BME280;74899;42.256;23.284;2024-01-30T07:21:49;90105.78;;;-3.14;60.65
84673;BME280;74899;42.256;23.284;2024-01-30T07:24:15;90107.88;;;-3.09;60.44
84673;BME280;74899;42.256;23.284;2024-01-30T07:26:41;90101.19;;;-3.36;60.83
84673;BME280;74899;42.256;23.284;2024-01-30T07:29:07;90082.13;;;-3.39;60.15
84673;BME280;74899;42.256;23.284;2024-01-30T07:31:33;90099.06;;;-3.05;59.95
84673;BME280;74899;42.256;23.284;2024-01-30T07:33:58;90097.41;;;-2.70;58.94
84673;BME280;74899;42.256;23.284;2024-01-30T07:36:24;90087.97;;;-2.68;59.41
84673;BME280;74899;42.256;23.284;2024-01-30T07:38:50;90096.50;;;-2.61;58.97
84673;BME280;74899;42.256;23.284;2024-01-30T07:41:17;90090.19;;;-2.65;59.56
84673;BME280;74899;42.256;23.284;2024-01-30T07:43:43;90099.06;;;-2.53;58.92
84673;BME280;74899;42.256;23.284;2024-01-30T07:46:09;90098.88;;;-2.34;57.48
84673;BME280;74899;42.256;23.284;2024-01-30T07:48:35;90096.34;;;-2.25;57.68
84673;BME280;74899;42.256;23.284;2024-01-30T07:51:01;90096.88;;;-2.14;56.71
84673;BME280;74899;42.256;23.284;2024-01-30T07:53:28;90098.03;;;-2.00;56.55
84673;BME280;74899;42.256;23.284;2024-01-30T07:55:54;90092.25;;;-2.26;56.41
84673;BME280;74899;42.256;23.284;2024-01-30T07:58:21;90098.78;;;-2.16;57.05
84673;BME280;74899;42.256;23.284;2024-01-30T08:00:47;90090.03;;;-2.30;57.69
84673;BME280;74899;42.256;23.284;2024-01-30T08:03:12;90089.94;;;-2.54;57.55
84673;BME280;74899;42.256;23.284;2024-01-30T08:05:38;90103.13;;;-2.26;57.86
84673;BME280;74899;42.256;23.284;2024-01-30T08:08:05;90103.63;;;-2.22;57.85
84673;BME280;74899;42.256;23.284;2024-01-30T08:10:31;90083.97;;;-1.94;56.42
84673;BME280;74899;42.256;23.284;2024-01-30T08:12:57;90097.50;;;-1.69;55.51
84673;BME280;74899;42.256;23.284;2024-01-30T08:15:23;90086.44;;;-1.60;55.41
84673;BME280;74899;42.256;23.284;2024-01-30T08:17:49;90100.97;;;-1.54;55.10
84673;BME280;74899;42.256;23.284;2024-01-30T08:20:16;90096.25;;;-1.49;55.67
84673;BME280;74899;42.256;23.284;2024-01-30T08:22:42;90099.41;;;-1.47;55.17
84673;BME280;74899;42.256;23.284;2024-01-30T08:25:08;90099.59;;;-1.40;55.20
84673;BME280;74899;42.256;23.284;2024-01-30T08:27:35;90086.78;;;-1.39;53.58
84673;BME280;74899;42.256;23.284;2024-01-30T08:30:04;90087.25;;;-1.35;54.29
84673;BME280;74899;42.256;23.284;2024-01-30T08:32:30;90080.75;;;-1.38;54.53
84673;BME280;74899;42.256;23.284;2024-01-30T08:34:56;90083.63;;;-1.24;53.98
84673;BME280;74899;42.256;23.284;2024-01-30T08:37:22;90089.31;;;-1.30;54.78
84673;BME280;74899;42.256;23.284;2024-01-30T08:39:48;90073.97;;;-1.37;54.36
84673;BME280;74899;42.256;23.284;2024-01-30T08:42:13;90089.16;;;-1.21;53.63
84673;BME280;74899;42.256;23.284;2024-01-30T08:44:40;90075.50;;;-1.77;53.13
84673;BME280;74899;42.256;23.284;2024-01-30T08:47:06;90090.69;;;-1.69;54.73
84673;BME280;74899;42.256;23.284;2024-01-30T08:49:32;90106.16;;;-2.22;55.42
84673;BME280;74899;42.256;23.284;2024-01-30T08:51:58;90057.97;;;-3.85;57.37
84673;BME280;74899;42.256;23.284;2024-01-30T08:54:24;90059.81;;;-3.88;58.93
84673;BME280;74899;42.256;23.284;2024-01-30T08:56:50;90103.97;;;-3.48;58.20
84673;BME280;74899;42.256;23.284;2024-01-30T08:59:17;90109.16;;;-3.05;58.47
84673;BME280;74899;42.256;23.284;2024-01-30T09:01:43;90102.16;;;-2.67;57.13
84673;BME280;74899;42.256;23.284;2024-01-30T09:04:09;90109.28;;;-2.63;57.09
84673;BME280;74899;42.256;23.284;2024-01-30T09:06:37;90067.06;;;-3.05;58.35
84673;BME280;74899;42.256;23.284;2024-01-30T09:09:05;90111.56;;;-3.04;59.04
84673;BME280;74899;42.256;23.284;2024-01-30T09:11:31;90105.72;;;-3.22;58.96
84673;BME280;74899;42.256;23.284;2024-01-30T09:13:57;90105.00;;;-3.14;59.11
84673;BME280;74899;42.256;23.284;2024-01-30T09:16:24;90119.97;;;-2.69;57.54
84673;BME280;74899;42.256;23.284;2024-01-30T09:18:50;90107.63;;;-2.12;56.47
84673;BME280;74899;42.256;23.284;2024-01-30T09:21:17;90103.56;;;-2.39;56.70
84673;BME280;74899;42.256;23.284;2024-01-30T09:23:44;90114.34;;;-2.89;57.42
84673;BME280;74899;42.256;23.284;2024-01-30T09:26:10;90104.88;;;-3.49;59.89
84673;BME280;74899;42.256;23.284;2024-01-30T09:28:37;90104.81;;;-3.57;60.35
84673;BME280;74899;42.256;23.284;2024-01-30T09:31:03;90101.00;;;-3.43;59.70
84673;BME280;74899;42.256;23.284;2024-01-30T09:33:29;90091.88;;;-3.62;60.20
84673;BME280;74899;42.256;23.284;2024-01-30T09:35:55;90095.75;;;-3.50;60.36
84673;BME280;74899;42.256;23.284;2024-01-30T09:38:20;90094.09;;;-3.59;60.00
84673;BME280;74899;42.256;23.284;2024-01-30T09:40:54;90090.25;;;-3.63;60.20
84673;BME280;74899;42.256;23.284;2024-01-30T09:43:23;90080.19;;;-3.01;58.41
84673;BME280;74899;42.256;23.284;2024-01-30T09:45:50;90078.66;;;-2.94;58.43
84673;BME280;74899;42.256;23.284;2024-01-30T09:48:16;90056.84;;;-2.35;56.72
84673;BME280;74899;42.256;23.284;2024-01-30T09:50:42;90067.28;;;-1.79;55.22
84673;BME280;74899;42.256;23.284;2024-01-30T09:53:08;90066.00;;;-1.91;54.02
84673;BME280;74899;42.256;23.284;2024-01-30T09:55:35;90078.31;;;-2.39;55.37
84673;BME280;74899;42.256;23.284;2024-01-30T09:58:01;90077.41;;;-2.64;55.54
84673;BME280;74899;42.256;23.284;2024-01-30T10:00:27;90068.59;;;-2.60;55.16
84673;BME280;74899;42.256;23.284;2024-01-30T10:02:53;90059.16;;;-2.84;55.39
84673;BME280;74899;42.256;23.284;2024-01-30T10:05:19;90038.75;;;-2.64;56.22
84673;BME280;74899;42.256;23.284;2024-01-30T10:07:56;90064.19;;;-2.84;55.01
84673;BME280;74899;42.256;23.284;2024-01-30T10:10:25;90060.97;;;-2.68;54.84
84673;BME280;74899;42.256;23.284;2024-01-30T10:12:52;90062.06;;;-2.36;55.41
84673;BME280;74899;42.256;23.284;2024-01-30T10:15:18;90041.13;;;-2.20;55.46
84673;BME280;74899;42.256;23.284;2024-01-30T10:17:45;90065.16;;;-2.08;54.60
84673;BME280;74899;42.256;23.284;2024-01-30T10:20:13;90056.91;;;-1.51;52.76
84673;BME280;74899;42.256;23.284;2024-01-30T10:22:43;90060.69;;;-1.31;52.28
84673;BME280;74899;42.256;23.284;2024-01-30T10:25:10;90048.03;;;-0.98;50.47
84673;BME280;74899;42.256;23.284;2024-01-30T10:27:39;90021.19;;;-1.40;51.66
84673;BME280;74899;42.256;23.284;2024-01-30T10:30:07;90042.19;;;-1.07;51.82
84673;BME280;74899;42.256;23.284;2024-01-30T10:32:33;90042.25;;;-0.59;51.03
84673;BME280;74899;42.256;23.284;2024-01-30T10:34:59;90029.25;;;-0.64;48.94
84673;BME280;74899;42.256;23.284;2024-01-30T10:37:29;90039.13;;;-0.86;49.54
84673;BME280;74899;42.256;23.284;2024-01-30T10:40:04;90040.56;;;-1.00;50.71
84673;BME280;74899;42.256;23.284;2024-01-30T10:42:36;90031.25;;;-0.99;50.64
84673;BME280;74899;42.256;23.284;2024-01-30T10:45:09;90031.28;;;-1.24;51.48
84673;BME280;74899;42.256;23.284;2024-01-30T10:47:36;90042.75;;;-2.03;53.41
84673;BME280;74899;42.256;23.284;2024-01-30T10:50:04;90050.41;;;-3.24;56.99
84673;BME280;74899;42.256;23.284;2024-01-30T10:52:32;90049.16;;;-3.20;57.89
84673;BME280;74899;42.256;23.284;2024-01-30T10:54:58;90059.28;;;-3.37;58.30
84673;BME280;74899;42.256;23.284;2024-01-30T10:57:28;90047.50;;;-3.55;59.61
84673;BME280;74899;42.256;23.284;2024-01-30T10:59:58;90034.91;;;-3.73;59.97
84673;BME280;74899;42.256;23.284;2024-01-30T11:02:25;90036.47;;;-3.72;60.93
84673;BME280;74899;42.256;23.284;2024-01-30T11:04:58;90045.94;;;-3.74;61.20
84673;BME280;74899;42.256;23.284;2024-01-30T11:07:27;90036.34;;;-3.88;60.89
84673;BME280;74899;42.256;23.284;2024-01-30T11:10:00;90027.56;;;-3.84;61.37
84673;BME280;74899;42.256;23.284;2024-01-30T11:12:27;90044.63;;;-3.78;61.60
84673;BME280;74899;42.256;23.284;2024-01-30T11:15:14;90052.34;;;-3.97;62.36
84673;BME280;74899;42.256;23.284;2024-01-30T11:20:22;90049.88;;;-3.53;61.37
84673;BME280;74899;42.256;23.284;2024-01-30T11:22:56;90043.53;;;-3.57;60.17
84673;BME280;74899;42.256;23.284;2024-01-30T11:25:22;90040.88;;;-3.56;60.91
84673;BME280;74899;42.256;23.284;2024-01-30T11:27:53;90045.06;;;-3.65;61.42
84673;BME280;74899;42.256;23.284;2024-01-30T11:30:29;90042.72;;;-3.40;61.06
84673;BME280;74899;42.256;23.284;2024-01-30T11:33:04;90034.22;;;-3.39;60.74
84673;BME280;74899;42.256;23.284;2024-01-30T11:35:43;90006.19;;;-3.62;60.63
84673;BME280;74899;42.256;23.284;2024-01-30T11:38:10;90037.41;;;-3.55;61.41
84673;BME280;74899;42.256;23.284;2024-01-30T11:40:38;90033.38;;;-3.48;61.65
84673;BME280;74899;42.256;23.284;2024-01-30T11:43:05;90039.56;;;-3.60;61.57
84673;BME280;74899;42.256;23.284;2024-01-30T11:45:32;90037.13;;;-3.70;61.02
84673;BME280;74899;42.256;23.284;2024-01-30T11:47:58;90034.25;;;-3.75;62.67
84673;BME280;74899;42.256;23.284;2024-01-30T11:50:37;90009.28;;;-3.68;61.69
84673;BME280;74899;42.256;23.284;2024-01-30T11:53:04;90012.16;;;-3.37;61.16
84673;BME280;74899;42.256;23.284;2024-01-30T11:55:31;90029.09;;;-3.29;60.93
84673;BME280;74899;42.256;23.284;2024-01-30T11:57:57;90021.78;;;-3.14;60.79
84673;BME280;74899;42.256;23.284;2024-01-30T12:00:24;90015.94;;;-2.89;60.06
84673;BME280;74899;42.256;23.284;2024-01-30T12:02:54;90025.72;;;-2.86;58.81
84673;BME280;74899;42.256;23.284;2024-01-30T12:05:26;90018.53;;;-2.30;58.48
84673;BME280;74899;42.256;23.284;2024-01-30T12:07:52;90000.94;;;-2.48;58.85
84673;BME280;74899;42.256;23.284;2024-01-30T12:10:19;90006.47;;;-2.44;59.16
84673;BME280;74899;42.256;23.284;2024-01-30T12:12:47;90016.69;;;-2.03;59.28
84673;BME280;74899;42.256;23.284;2024-01-30T12:15:14;90006.91;;;-2.57;58.81
84673;BME280;74899;42.256;23.284;2024-01-30T12:17:40;90002.47;;;-2.98;59.99
84673;BME280;74899;42.256;23.284;2024-01-30T12:20:12;90013.22;;;-3.22;61.61
84673;BME280;74899;42.256;23.284;2024-01-30T12:22:40;90020.28;;;-2.99;61.64
84673;BME280;74899;42.256;23.284;2024-01-30T12:25:13;90002.50;;;-2.55;59.65
84673;BME280;74899;42.256;23.284;2024-01-30T12:27:42;90005.84;;;-2.46;59.43
84673;BME280;74899;42.256;23.284;2024-01-30T12:30:12;90004.81;;;-2.28;59.47
84673;BME280;74899;42.256;23.284;2024-01-30T12:32:42;90007.81;;;-3.01;60.29
84673;BME280;74899;42.256;23.284;2024-01-30T12:35:15;90004.84;;;-2.96;60.62
84673;BME280;74899;42.256;23.284;2024-01-30T12:37:43;90011.53;;;-2.79;60.67
84673;BME280;74899;42.256;23.284;2024-01-30T12:40:11;90008.56;;;-3.08;60.47
84673;BME280;74899;42.256;23.284;2024-01-30T12:42:41;89996.56;;;-3.14;61.75
84673;BME280;74899;42.256;23.284;2024-01-30T12:45:09;90000.94;;;-2.90;61.09
84673;BME280;74899;42.256;23.284;2024-01-30T12:47:35;89998.75;;;-2.43;59.67
84673;BME280;74899;42.256;23.284;2024-01-30T12:50:01;89981.44;;;-2.21;59.92
84673;BME280;74899;42.256;23.284;2024-01-30T12:52:27;89991.78;;;-1.74;58.50
84673;BME280;74899;42.256;23.284;2024-01-30T12:54:53;89995.56;;;-1.62;58.61